CheckWX is a tool to help pilots better visualize weather data.  It is not intended as a substitute for an official pre-flight weather briefing.

11:13:53 UTC

KABE TAF
Lehigh Valley International Airport
Allentown, Pennsylvania, USA
KABE 051121Z 0512/0612 23005KT P6SM SCT050 BKN250 FM051400 26006KT P6SM SCT070 BKN250 FM060300 VRB04KT P6SM VCSH SCT030 OVC040 FM061000 35008KT P6SM FEW030

Apr-5@
12:00 UTC

Apr-5 @ 12:00 UTC

Apr-5@
14:00 UTC

Apr-5 @ 14:00 UTC

TAF KABE 051121Z 0512/0612 23005KT P6SM SCT050 BKN250

Expired

Wind
  • 230° at 5 KTS
Cloud Levels
  • Scattered at 5,000' AGL
  • Broken at 25,000' AGL

Apr-5@
14:00 UTC

Apr-5 @ 14:00 UTC

Apr-6@
03:00 UTC

Apr-6 @ 03:00 UTC

FM051400 26006KT P6SM SCT070 BKN250

Expired

Wind
  • 260° at 6 KTS
Cloud Levels
  • Scattered at 7,000' AGL
  • Broken at 25,000' AGL

Apr-6@
03:00 UTC

Apr-6 @ 03:00 UTC

Apr-6@
10:00 UTC

Apr-6 @ 10:00 UTC

FM060300 VRB04KT P6SM VCSH SCT030 OVC040

Expired

Wind
  • Variable at 4 KTS
Conditions
Area Showers
Cloud Levels
  • Scattered at 3,000' AGL
  • Overcast at 4,000' AGL

Apr-6@
10:00 UTC

Apr-6 @ 10:00 UTC

Apr-6@
12:00 UTC

Apr-6 @ 12:00 UTC

FM061000 35008KT P6SM FEW030

From

From Standard forecast or significant change

Wind
  • 350° at 8 KTS
Cloud Levels
  • Few at 3,000' AGL